createdAt,value
2023-08-23T00:00:10.831Z,8.97
2023-08-23T00:02:37.954Z,4.73
2023-08-23T00:05:05.539Z,12.93
2023-08-23T00:07:32.416Z,7.77
2023-08-23T00:09:59.274Z,6.60
2023-08-23T00:12:26.558Z,7.50
2023-08-23T00:14:53.516Z,4.20
2023-08-23T00:17:20.501Z,9.10
2023-08-23T00:19:47.543Z,10.90
2023-08-23T00:22:14.913Z,8.97
2023-08-23T00:24:41.906Z,7.00
2023-08-23T00:27:08.862Z,12.40
2023-08-23T00:29:35.846Z,6.27
2023-08-23T00:32:03.557Z,8.20
2023-08-23T00:34:31.409Z,8.00
2023-08-23T00:36:58.320Z,5.07
2023-08-23T00:39:25.604Z,12.00
2023-08-23T00:41:52.494Z,7.97
2023-08-23T00:44:19.500Z,12.50
2023-08-23T00:46:46.845Z,5.83
2023-08-23T00:49:14.089Z,4.80
2023-08-23T00:51:42.355Z,8.27
2023-08-23T00:54:11.087Z,12.50
2023-08-23T00:56:39.499Z,7.50
2023-08-23T00:59:08.532Z,8.43
2023-08-23T01:01:35.786Z,10.33
2023-08-23T01:04:02.790Z,4.77
2023-08-23T01:06:38.700Z,9.70
2023-08-23T01:09:17.837Z,12.10
2023-08-23T01:12:03.797Z,6.33
2023-08-23T01:15:11.680Z,6.53
2023-08-23T01:17:45.154Z,6.10
2023-08-23T01:20:15.027Z,4.50
2023-08-23T01:22:54.056Z,5.60
2023-08-23T01:25:21.659Z,16.40
2023-08-23T01:27:56.526Z,16.73
2023-08-23T01:30:24.834Z,6.13
2023-08-23T01:33:02.627Z,11.13
2023-08-23T01:35:43.350Z,11.20
2023-08-23T01:38:12.613Z,7.30
2023-08-23T01:40:40.582Z,13.63
2023-08-23T01:43:07.837Z,7.43
2023-08-23T01:45:35.129Z,6.80
2023-08-23T01:48:02.272Z,7.10
2023-08-23T01:50:29.314Z,7.00
2023-08-23T01:52:56.272Z,10.43
2023-08-23T01:55:24.384Z,6.80
2023-08-23T01:57:51.435Z,7.83
2023-08-23T02:00:18.514Z,7.83
2023-08-23T02:02:45.502Z,8.47
2023-08-23T02:05:12.520Z,9.40
2023-08-23T02:07:39.670Z,6.93
2023-08-23T02:10:06.914Z,6.23
2023-08-23T02:12:34.103Z,6.47
2023-08-23T02:15:01.014Z,13.53
2023-08-23T02:17:27.956Z,6.73
2023-08-23T02:19:54.872Z,6.20
2023-08-23T02:22:21.817Z,7.70
2023-08-23T02:24:48.696Z,7.17
2023-08-23T02:27:15.633Z,7.47
2023-08-23T02:29:42.606Z,5.60
2023-08-23T02:32:09.744Z,7.00
2023-08-23T02:34:36.665Z,5.00
2023-08-23T02:37:03.598Z,6.23
2023-08-23T02:39:30.726Z,8.80
2023-08-23T02:41:57.705Z,10.40
2023-08-23T02:44:24.738Z,8.90
2023-08-23T02:46:51.677Z,8.07
2023-08-23T02:49:18.760Z,8.67
2023-08-23T02:51:45.687Z,5.67
2023-08-23T02:54:12.621Z,11.77
2023-08-23T02:56:40.187Z,13.93
2023-08-23T02:59:07.220Z,11.07
2023-08-23T03:01:34.213Z,8.00
2023-08-23T03:04:01.348Z,11.70
2023-08-23T03:06:28.290Z,7.97
2023-08-23T03:08:55.256Z,8.17
2023-08-23T03:11:22.358Z,12.83
2023-08-23T03:13:49.333Z,17.43
2023-08-23T03:16:16.366Z,12.00
2023-08-23T03:18:43.374Z,7.33
2023-08-23T03:21:10.491Z,6.30
2023-08-23T03:23:38.340Z,7.10
2023-08-23T03:26:05.255Z,6.80
2023-08-23T03:28:32.189Z,8.93
2023-08-23T03:31:04.171Z,7.73
2023-08-23T03:33:31.514Z,7.23
2023-08-23T03:35:58.922Z,8.40
2023-08-23T03:38:25.938Z,7.83
2023-08-23T03:40:53.691Z,10.57
2023-08-23T03:43:21.396Z,8.43
2023-08-23T03:45:51.847Z,9.40
2023-08-23T03:48:18.896Z,9.93
2023-08-23T03:50:45.916Z,10.27
2023-08-23T03:53:12.911Z,9.43
2023-08-23T03:55:39.900Z,5.93
2023-08-23T03:58:07.237Z,10.17
2023-08-23T04:00:34.297Z,6.70
2023-08-23T04:03:02.603Z,7.97
2023-08-23T04:05:29.895Z,6.97
2023-08-23T04:07:56.857Z,10.20
2023-08-23T04:10:23.967Z,7.23
2023-08-23T04:12:50.882Z,8.13
2023-08-23T04:15:19.077Z,7.90
2023-08-23T04:17:46.522Z,8.10
2023-08-23T04:20:14.984Z,12.20
2023-08-23T04:22:41.854Z,11.67
2023-08-23T04:25:09.410Z,12.80
2023-08-23T04:27:36.377Z,5.77
2023-08-23T04:30:04.258Z,5.60
2023-08-23T04:32:31.186Z,7.93
2023-08-23T04:34:58.224Z,17.70
2023-08-23T04:37:25.274Z,8.30
2023-08-23T04:39:52.216Z,8.00
2023-08-23T04:42:19.135Z,8.77
2023-08-23T04:44:46.358Z,7.07
2023-08-23T04:47:13.547Z,9.83
2023-08-23T04:49:40.578Z,11.57
2023-08-23T04:52:07.524Z,17.53
2023-08-23T04:54:34.508Z,8.20
2023-08-23T04:57:01.509Z,8.70
2023-08-23T04:59:28.388Z,12.73
2023-08-23T05:01:55.322Z,12.37
2023-08-23T05:04:23.570Z,7.83
2023-08-23T05:06:50.441Z,11.87
2023-08-23T05:09:17.426Z,12.60
2023-08-23T05:11:44.379Z,6.73
2023-08-23T05:14:11.265Z,10.00
2023-08-23T05:16:38.584Z,9.80
2023-08-23T05:19:05.561Z,10.77
2023-08-23T05:21:32.528Z,11.33
2023-08-23T05:23:59.504Z,8.37
2023-08-23T05:26:26.696Z,8.80
2023-08-23T05:28:53.605Z,15.23
2023-08-23T05:31:21.249Z,9.70
2023-08-23T05:33:48.222Z,14.60
2023-08-23T05:36:15.378Z,13.20
2023-08-23T05:38:42.350Z,17.73
2023-08-23T05:41:09.565Z,11.10
2023-08-23T05:43:36.695Z,14.27
2023-08-23T05:46:04.652Z,12.37
2023-08-23T05:48:36.230Z,10.17
2023-08-23T05:51:04.045Z,11.90
2023-08-23T05:53:31.100Z,15.10
2023-08-23T05:55:58.387Z,18.03
2023-08-23T05:58:26.287Z,19.00
2023-08-23T06:00:55.387Z,16.07
2023-08-23T06:03:22.622Z,15.13
2023-08-23T06:05:54.828Z,16.93
2023-08-23T06:08:22.030Z,23.37
2023-08-23T06:10:49.144Z,13.50
2023-08-23T06:13:16.688Z,13.97
2023-08-23T06:15:43.702Z,22.80
2023-08-23T06:18:10.616Z,17.80
2023-08-23T06:20:37.764Z,16.53
2023-08-23T06:23:04.974Z,20.73
2023-08-23T06:25:32.047Z,14.17
2023-08-23T06:27:58.970Z,21.10
2023-08-23T06:30:25.907Z,16.87
2023-08-23T06:32:52.988Z,22.40
2023-08-23T06:35:22.911Z,18.93
2023-08-23T06:37:50.246Z,19.07
2023-08-23T06:40:17.823Z,22.57
2023-08-23T06:42:45.157Z,20.83
2023-08-23T06:45:12.126Z,27.00
2023-08-23T06:47:39.277Z,21.40
2023-08-23T06:50:11.229Z,24.30
2023-08-23T06:52:39.025Z,21.57
2023-08-23T06:55:07.312Z,20.27
2023-08-23T06:57:34.460Z,31.73
2023-08-23T07:00:01.465Z,23.23
2023-08-23T07:02:28.587Z,19.27
2023-08-23T07:04:55.613Z,23.40
2023-08-23T07:07:23.077Z,17.50
2023-08-23T07:09:51.058Z,26.20
2023-08-23T07:12:18.409Z,17.70
2023-08-23T07:14:51.701Z,18.03
2023-08-23T07:17:18.733Z,14.20
2023-08-23T07:19:46.423Z,16.10
2023-08-23T07:22:13.452Z,15.63
2023-08-23T07:24:40.338Z,15.67
2023-08-23T07:27:07.413Z,13.10
2023-08-23T07:29:37.250Z,18.33
2023-08-23T07:32:05.336Z,17.43
2023-08-23T07:34:32.371Z,21.73
2023-08-23T07:36:59.496Z,17.93
2023-08-23T07:39:28.517Z,10.53
2023-08-23T07:41:55.868Z,13.00
2023-08-23T07:44:24.955Z,27.23
2023-08-23T07:46:53.516Z,9.00
2023-08-23T07:49:20.987Z,13.90
2023-08-23T07:51:49.444Z,12.13
2023-08-23T07:54:16.414Z,10.63
2023-08-23T07:56:43.645Z,13.67
2023-08-23T07:59:10.593Z,15.20
2023-08-23T08:01:37.577Z,12.23
2023-08-23T08:04:04.732Z,16.63
2023-08-23T08:06:31.715Z,11.87
2023-08-23T08:08:58.662Z,12.10
2023-08-23T08:11:25.673Z,8.00
2023-08-23T08:13:52.682Z,12.60
2023-08-23T08:16:19.862Z,9.43
2023-08-23T08:18:46.857Z,8.17
2023-08-23T08:21:13.882Z,6.90
2023-08-23T08:23:40.880Z,14.67
2023-08-23T08:26:08.147Z,11.63
2023-08-23T08:28:35.354Z,10.53
2023-08-23T08:31:02.764Z,10.07
2023-08-23T08:33:29.733Z,9.47
2023-08-23T08:35:57.377Z,6.40
2023-08-23T08:38:24.310Z,9.83
2023-08-23T08:40:51.429Z,9.23
2023-08-23T08:43:19.612Z,7.03
2023-08-23T08:45:46.954Z,5.33
2023-08-23T08:48:14.450Z,9.50
2023-08-23T08:50:44.333Z,6.60
2023-08-23T08:53:16.817Z,8.90
2023-08-23T08:55:46.718Z,10.40
2023-08-23T08:58:20.955Z,13.60
2023-08-23T09:00:51.459Z,9.13
2023-08-23T09:03:20.277Z,11.30
2023-08-23T09:05:51.481Z,7.30
2023-08-23T09:08:18.931Z,5.97
2023-08-23T09:10:46.122Z,6.87
2023-08-23T09:13:13.291Z,9.87
2023-08-23T09:15:40.374Z,7.80
2023-08-23T09:18:07.581Z,6.47
2023-08-23T09:20:34.642Z,9.30
2023-08-23T09:23:01.793Z,4.63
2023-08-23T09:25:28.774Z,7.40
2023-08-23T09:27:56.594Z,9.13
2023-08-23T09:30:24.251Z,6.83
2023-08-23T09:32:51.255Z,4.20
2023-08-23T09:35:19.541Z,6.57
2023-08-23T09:37:48.612Z,5.07
2023-08-23T09:40:27.723Z,10.67
2023-08-23T09:42:58.179Z,8.43
2023-08-23T09:45:27.757Z,6.83
2023-08-23T09:47:56.748Z,5.30
2023-08-23T09:50:25.671Z,4.93
2023-08-23T09:53:07.711Z,7.43
2023-08-23T09:55:35.723Z,10.10
2023-08-23T09:58:03.912Z,6.20
2023-08-23T10:00:31.447Z,10.30
2023-08-23T10:02:59.365Z,3.37
2023-08-23T10:05:28.610Z,4.60
2023-08-23T10:07:57.775Z,3.47
2023-08-23T10:10:27.002Z,5.23
2023-08-23T10:12:59.119Z,9.07
2023-08-23T10:15:34.302Z,4.20
2023-08-23T10:18:04.020Z,5.07
2023-08-23T10:20:35.853Z,9.30
2023-08-23T10:23:11.973Z,5.23
2023-08-23T10:25:39.276Z,6.10
2023-08-23T10:28:06.410Z,6.43
2023-08-23T10:30:33.356Z,8.03
2023-08-23T10:33:10.813Z,4.80
2023-08-23T10:35:39.189Z,5.90
2023-08-23T10:38:07.979Z,4.53
2023-08-23T10:40:36.283Z,3.90
2023-08-23T10:43:19.681Z,6.87
2023-08-23T10:46:03.583Z,7.20
2023-08-23T10:48:31.347Z,9.20
2023-08-23T10:50:58.691Z,9.50
2023-08-23T10:53:28.248Z,6.17
2023-08-23T10:55:56.335Z,5.97
2023-08-23T10:58:25.793Z,6.30
2023-08-23T11:00:54.948Z,4.97
2023-08-23T11:03:22.851Z,6.13
2023-08-23T11:05:50.189Z,6.20
2023-08-23T11:08:17.548Z,5.90
2023-08-23T11:10:44.638Z,5.47
2023-08-23T11:13:13.059Z,5.20
2023-08-23T11:15:44.358Z,4.73
2023-08-23T11:18:15.028Z,4.13
2023-08-23T11:20:43.068Z,4.07
2023-08-23T11:23:11.264Z,7.00
2023-08-23T11:25:38.245Z,8.00
2023-08-23T11:28:07.268Z,7.00
2023-08-23T11:30:34.435Z,4.60
2023-08-23T11:33:01.481Z,13.00
2023-08-23T11:35:29.979Z,6.70
2023-08-23T11:37:57.889Z,7.03
2023-08-23T11:40:25.312Z,3.83
2023-08-23T11:43:12.004Z,5.97
2023-08-23T11:45:43.849Z,4.47
2023-08-23T11:48:14.681Z,4.00
2023-08-23T11:50:41.763Z,7.93
2023-08-23T11:53:10.693Z,3.53
2023-08-23T11:55:38.340Z,2.63
2023-08-23T11:58:05.461Z,6.80
2023-08-23T12:00:32.904Z,5.10
2023-08-23T12:03:00.481Z,6.33
2023-08-23T12:05:27.342Z,3.50
2023-08-23T12:07:54.326Z,3.40
2023-08-23T12:10:22.239Z,4.47
2023-08-23T12:12:51.576Z,5.03
2023-08-23T12:15:18.784Z,4.90
2023-08-23T12:17:45.708Z,5.50
2023-08-23T12:20:15.144Z,5.30
2023-08-23T12:22:48.245Z,3.17
2023-08-23T12:25:15.450Z,6.60
2023-08-23T12:27:42.579Z,3.47
2023-08-23T12:30:12.455Z,3.30
2023-08-23T12:32:39.401Z,3.00
2023-08-23T12:35:07.120Z,4.75
2023-08-23T12:37:33.977Z,2.78
2023-08-23T12:40:00.861Z,3.80
2023-08-23T12:42:27.716Z,21.45
2023-08-23T12:44:56.065Z,3.90
2023-08-23T12:47:24.892Z,5.00
2023-08-23T12:49:51.898Z,6.75
2023-08-23T12:52:18.913Z,4.03
2023-08-23T12:54:45.638Z,7.95
2023-08-23T12:57:12.536Z,5.90
2023-08-23T12:59:39.350Z,5.20
2023-08-23T13:02:06.714Z,5.47
2023-08-23T13:04:33.454Z,6.57
2023-08-23T13:07:00.199Z,7.60
2023-08-23T13:09:27.079Z,4.07
2023-08-23T13:11:53.912Z,6.43
2023-08-23T13:14:22.180Z,4.60
2023-08-23T13:16:49.024Z,2.37
2023-08-23T13:19:15.736Z,6.78
2023-08-23T13:21:43.276Z,7.07
2023-08-23T13:24:25.298Z,3.90
2023-08-23T13:26:52.488Z,5.53
2023-08-23T13:29:19.321Z,5.50
2023-08-23T13:31:46.173Z,11.03
2023-08-23T13:34:14.134Z,9.52
2023-08-23T13:36:42.467Z,5.35
2023-08-23T13:39:10.180Z,6.80
2023-08-23T13:41:37.096Z,2.60
2023-08-23T13:44:05.178Z,5.30
2023-08-23T13:46:32.192Z,6.20
2023-08-23T13:48:59.166Z,4.40
2023-08-23T13:51:25.930Z,2.40
2023-08-23T13:53:52.668Z,7.10
2023-08-23T13:56:19.433Z,3.73
2023-08-23T13:58:46.221Z,7.50
2023-08-23T14:01:13.079Z,3.63
2023-08-23T14:03:39.838Z,5.20
2023-08-23T14:06:06.617Z,4.70
2023-08-23T14:08:41.552Z,4.47
2023-08-23T14:11:08.276Z,5.40
2023-08-23T14:13:34.969Z,5.23
2023-08-23T14:16:01.954Z,4.77
2023-08-23T14:18:29.108Z,4.03
2023-08-23T14:20:56.132Z,6.73
2023-08-23T14:23:22.809Z,7.70
2023-08-23T14:25:49.575Z,3.70
2023-08-23T14:28:16.279Z,5.93
2023-08-23T14:30:45.714Z,2.37
2023-08-23T14:33:12.762Z,9.90
2023-08-23T14:35:42.531Z,6.40
2023-08-23T14:38:09.292Z,11.50
2023-08-23T14:40:36.094Z,8.10
2023-08-23T14:43:03.139Z,6.37
2023-08-23T14:45:30.420Z,3.40
2023-08-23T14:47:57.415Z,3.07
2023-08-23T14:50:26.618Z,5.43
2023-08-23T14:52:54.365Z,7.20
2023-08-23T14:55:21.576Z,5.73
2023-08-23T14:57:48.693Z,9.00
2023-08-23T15:00:16.722Z,3.30
2023-08-23T15:02:43.882Z,4.50
2023-08-23T15:05:11.672Z,7.00
2023-08-23T15:07:38.765Z,8.93
2023-08-23T15:10:06.984Z,3.20
2023-08-23T15:12:34.009Z,5.67
2023-08-23T15:15:00.939Z,11.10
2023-08-23T15:17:28.290Z,5.43
2023-08-23T15:19:55.658Z,9.50
2023-08-23T15:22:23.351Z,7.70
2023-08-23T15:24:50.367Z,5.97
2023-08-23T15:27:19.733Z,4.40
2023-08-23T15:30:05.804Z,5.00
2023-08-23T15:32:39.411Z,9.13
2023-08-23T15:35:06.800Z,7.30
2023-08-23T15:37:33.930Z,9.80
2023-08-23T15:40:00.910Z,5.80
2023-08-23T15:42:28.210Z,6.93
2023-08-23T15:44:58.311Z,7.90
2023-08-23T15:47:25.470Z,4.27
2023-08-23T15:49:52.414Z,4.23
2023-08-23T15:52:19.440Z,4.83
2023-08-23T15:54:46.691Z,4.73
2023-08-23T15:57:20.367Z,5.53
2023-08-23T15:59:48.619Z,3.57
2023-08-23T16:02:16.551Z,8.60
2023-08-23T16:04:44.295Z,5.13
2023-08-23T16:07:11.394Z,6.50
2023-08-23T16:09:38.438Z,5.10
2023-08-23T16:12:05.660Z,4.67
2023-08-23T16:14:32.775Z,4.73
2023-08-23T16:16:59.739Z,5.30
2023-08-23T16:19:26.619Z,8.90
2023-08-23T16:21:56.434Z,7.60
2023-08-23T16:24:23.484Z,5.20
2023-08-23T16:26:51.373Z,6.33
2023-08-23T16:29:18.774Z,8.30
2023-08-23T16:31:45.726Z,5.50
2023-08-23T16:34:12.652Z,4.60
2023-08-23T16:36:39.791Z,9.30
2023-08-23T16:39:06.930Z,11.37
2023-08-23T16:41:33.844Z,12.80
2023-08-23T16:44:00.836Z,10.60
2023-08-23T16:46:28.319Z,6.30
2023-08-23T16:48:55.294Z,8.77
2023-08-23T16:51:22.207Z,6.33
2023-08-23T16:53:49.137Z,8.73
2023-08-23T16:56:16.076Z,11.73
2023-08-23T16:58:43.029Z,5.70
2023-08-23T17:01:10.061Z,13.43
2023-08-23T17:03:37.688Z,3.63
2023-08-23T17:06:04.852Z,7.40
2023-08-23T17:08:31.720Z,5.40
2023-08-23T17:11:05.273Z,7.67
2023-08-23T17:13:32.232Z,4.63
2023-08-23T17:15:59.477Z,4.47
2023-08-23T17:18:26.411Z,5.30
2023-08-23T17:21:02.720Z,2.70
2023-08-23T17:23:29.855Z,5.60
2023-08-23T17:25:57.794Z,7.87
2023-08-23T17:28:24.839Z,4.07
2023-08-23T17:30:52.567Z,5.43
2023-08-23T17:33:21.380Z,9.63
2023-08-23T17:35:48.669Z,4.57
2023-08-23T17:38:15.628Z,12.73
2023-08-23T17:40:42.541Z,14.80
2023-08-23T17:43:09.544Z,5.40
2023-08-23T17:45:36.515Z,11.00
2023-08-23T17:48:03.789Z,6.13
2023-08-23T17:50:30.701Z,4.87
2023-08-23T17:52:59.549Z,4.83
2023-08-23T17:55:26.816Z,4.23
2023-08-23T17:57:54.207Z,4.37
2023-08-23T18:00:21.430Z,7.33
2023-08-23T18:02:49.046Z,3.47
2023-08-23T18:05:16.395Z,6.30
2023-08-23T18:07:43.763Z,4.23
2023-08-23T18:10:11.020Z,13.00
2023-08-23T18:12:38.094Z,6.80
2023-08-23T18:15:05.638Z,5.23
2023-08-23T18:17:32.555Z,4.33
2023-08-23T18:19:59.809Z,6.97
2023-08-23T18:22:26.719Z,5.53
2023-08-23T18:24:53.601Z,4.67
2023-08-23T18:27:20.548Z,3.40
2023-08-23T18:29:47.498Z,9.73
2023-08-23T18:32:14.520Z,4.90
2023-08-23T18:34:41.400Z,8.30
2023-08-23T18:37:08.349Z,8.63
2023-08-23T18:39:35.277Z,14.80
2023-08-23T18:42:02.260Z,5.00
2023-08-23T18:44:30.945Z,3.37
2023-08-23T18:46:59.084Z,10.43
2023-08-23T18:49:26.354Z,15.13
2023-08-23T18:51:53.310Z,6.70
2023-08-23T18:54:20.219Z,6.30
2023-08-23T18:56:47.117Z,8.33
2023-08-23T18:59:14.014Z,9.33
2023-08-23T19:01:41.826Z,7.03
2023-08-23T19:04:08.857Z,4.37
2023-08-23T19:06:35.837Z,11.10
2023-08-23T19:09:02.789Z,8.33
2023-08-23T19:11:29.765Z,4.63
2023-08-23T19:13:56.793Z,3.57
2023-08-23T19:16:23.870Z,4.60
2023-08-23T19:18:50.826Z,3.93
2023-08-23T19:21:17.758Z,3.47
2023-08-23T19:23:44.725Z,5.90
2023-08-23T19:26:11.629Z,6.60
2023-08-23T19:28:38.618Z,11.63
2023-08-23T19:31:05.705Z,7.43
2023-08-23T19:33:32.692Z,6.50
2023-08-23T19:36:01.652Z,7.37
2023-08-23T19:38:28.552Z,13.03
2023-08-23T19:40:55.442Z,4.93
2023-08-23T19:43:23.115Z,13.63
2023-08-23T19:45:50.219Z,7.80
2023-08-23T19:50:47.748Z,6.63
2023-08-23T19:53:14.748Z,7.60
2023-08-23T19:55:41.721Z,7.27
2023-08-23T19:58:09.030Z,7.20
2023-08-23T20:00:36.077Z,9.93
2023-08-23T20:03:03.173Z,9.67
2023-08-23T20:05:30.300Z,9.10
2023-08-23T20:08:01.255Z,13.13
2023-08-23T20:10:30.280Z,5.60
2023-08-23T20:12:58.969Z,7.03
2023-08-23T20:15:25.908Z,9.70
2023-08-23T20:17:53.223Z,9.67
2023-08-23T20:20:21.144Z,5.73
2023-08-23T20:22:48.207Z,9.70
2023-08-23T20:25:15.409Z,6.70
2023-08-23T20:27:42.412Z,13.50
2023-08-23T20:30:10.248Z,7.07
2023-08-23T20:32:37.169Z,14.83
2023-08-23T20:35:04.525Z,7.27
2023-08-23T20:37:31.433Z,7.27
2023-08-23T20:39:58.604Z,20.63
2023-08-23T20:42:25.583Z,13.93
2023-08-23T20:44:52.837Z,17.10
2023-08-23T20:47:19.859Z,14.40
2023-08-23T20:49:47.077Z,8.60
2023-08-23T20:52:14.104Z,11.97
2023-08-23T20:54:41.154Z,13.23
2023-08-23T20:57:08.062Z,9.33
2023-08-23T20:59:34.972Z,15.20
2023-08-23T21:02:02.713Z,8.47
2023-08-23T21:04:29.723Z,13.10
2023-08-23T21:06:56.620Z,7.90
2023-08-23T21:09:23.811Z,8.40
2023-08-23T21:11:50.682Z,9.20
2023-08-23T21:14:17.577Z,11.73
2023-08-23T21:16:45.398Z,9.97
2023-08-23T21:19:12.767Z,17.13
2023-08-23T21:21:40.659Z,8.50
2023-08-23T21:24:07.788Z,8.60
2023-08-23T21:26:34.835Z,13.73
2023-08-23T21:29:01.706Z,9.40
2023-08-23T21:31:28.666Z,13.87
2023-08-23T21:33:56.046Z,10.57
2023-08-23T21:36:23.060Z,10.80
2023-08-23T21:38:49.978Z,10.20
2023-08-23T21:41:17.063Z,8.30
2023-08-23T21:43:43.987Z,13.10
2023-08-23T21:46:10.964Z,8.20
2023-08-23T21:48:38.241Z,7.40
2023-08-23T21:51:06.288Z,9.33
2023-08-23T21:53:33.352Z,11.23
2023-08-23T21:56:00.591Z,7.93
2023-08-23T21:58:29.244Z,12.73
2023-08-23T22:01:01.126Z,13.17
2023-08-23T22:03:36.844Z,13.30
2023-08-23T22:06:11.875Z,11.77
2023-08-23T22:08:39.957Z,18.27
2023-08-23T22:11:12.911Z,15.33
2023-08-23T22:13:43.101Z,10.00
2023-08-23T22:16:11.366Z,12.00
2023-08-23T22:18:39.032Z,12.43
2023-08-23T22:21:08.533Z,10.93
2023-08-23T22:23:35.742Z,13.40
2023-08-23T22:26:04.018Z,10.67
2023-08-23T22:28:32.166Z,12.33
2023-08-23T22:30:59.917Z,9.67
2023-08-23T22:33:27.644Z,17.90
2023-08-23T22:35:59.408Z,11.47
2023-08-23T22:38:27.421Z,13.10
2023-08-23T22:40:56.658Z,15.50
2023-08-23T22:43:24.195Z,15.10
2023-08-23T22:45:52.138Z,16.70
2023-08-23T22:48:19.293Z,18.63
2023-08-23T22:50:46.271Z,13.67
2023-08-23T22:53:13.460Z,10.47
2023-08-23T22:55:40.954Z,11.73
2023-08-23T22:58:08.659Z,12.90
2023-08-23T23:00:35.700Z,12.73
2023-08-23T23:03:03.412Z,11.77
2023-08-23T23:05:30.378Z,14.30
2023-08-23T23:07:58.002Z,14.43
2023-08-23T23:10:25.175Z,12.20
2023-08-23T23:12:52.191Z,13.13
2023-08-23T23:15:19.318Z,11.33
2023-08-23T23:17:46.266Z,12.30
2023-08-23T23:20:14.197Z,15.53
2023-08-23T23:22:42.430Z,13.70
2023-08-23T23:25:10.168Z,16.00
2023-08-23T23:27:37.913Z,15.97
2023-08-23T23:30:06.458Z,20.67
2023-08-23T23:32:34.116Z,17.83
2023-08-23T23:35:01.498Z,14.40
2023-08-23T23:37:29.067Z,12.50
2023-08-23T23:39:58.342Z,15.13
2023-08-23T23:42:25.719Z,18.47
2023-08-23T23:44:52.866Z,16.17
2023-08-23T23:47:19.929Z,16.27
2023-08-23T23:49:46.862Z,12.60
2023-08-23T23:52:13.779Z,13.43
2023-08-23T23:54:40.626Z,14.77
2023-08-23T23:57:07.675Z,17.13
2023-08-23T23:59:34.696Z,22.87
